Latest Weather Observations for Territory Grape Farm

IDD60801

Issued at 10:01 pm CST Monday 5 December 2016 (issued every 30 minutes, with the page automatically refreshed every 10 minutes)

About weather observations | Map of weather stations | Latest weather observations for NT | Other Formats
Station Details ID: 015643 Name: TERRITORY GRAPE FARM Lat: -22.45 Lon: 133.64 Height: 565.6 m
Data from the previous 72 hours. | See also: Recent months at Territory Grape Farm
Date/Time
CST
Temp
°C
App
Temp
°C
Dew
Point
°C
Rel
Hum
%
Delta-T
°C
Wind Press
QNH
hPa
Press
MSL
hPa
Rain since
9am
mm
Dir  Spd
km/h
Gust
km/h
Spd
kts
Gust
kts
05/10:00pm 27.8 29.5 18.5 57 6.1 S 7 9 4 5 1012.7 1008.4 0.0
05/09:30pm 28.1 29.9 18.2 55 6.5 SSW 6 7 3 4 1012.2 1008.0 0.0
05/09:00pm 28.9 30.0 18.1 52 7.0 WSW 9 11 5 6 1012.0 1007.7 0.0
05/08:30pm 29.7 30.2 17.5 48 7.9 SSW 11 13 6 7 1011.6 1007.3 0.0
05/08:00pm 30.8 30.6 17.5 45 8.6 SW 15 22 8 12 1011.2 1006.9 0.0
05/07:30pm 32.1 32.0 16.0 38 10.3 SW 11 17 6 9 1010.5 1006.2 0.0
05/07:00pm 34.0 32.3 9.9 23 14.2 N 9 11 5 6 1010.0 1005.7 0.0
05/06:30pm 35.0 33.6 9.4 21 15.0 N 7 13 4 7 1009.7 1005.4 0.0
05/06:00pm 36.2 35.1 11.8 23 14.9 NW 9 15 5 8 1009.2 1004.9 0.0
05/05:30pm 36.0 33.6 10.2 21 15.4 N 13 19 7 10 1009.1 1004.8 0.0
05/05:00pm 37.0 34.3 11.8 22 15.4 NNW 17 24 9 13 1009.0 1004.7 0.0
05/04:30pm 36.0 34.3 12.3 24 14.6 N 13 19 7 10 1009.4 1005.1 0.0
05/04:00pm 35.6 33.2 13.7 27 13.7 N 19 26 10 14 1009.8 1005.5 0.0
05/03:30pm 34.5 32.1 14.4 30 12.7 N 20 33 11 18 1010.1 1005.8 0.0
05/03:15pm 34.2 30.2 14.1 29 12.6 N 28 46 15 25 1010.3 1006.0 0.0
05/03:00pm 35.9 32.4 12.2 24 14.6 N 22 32 12 17 1010.2 1005.9 0.0
05/02:30pm 38.3 35.1 11.4 20 16.5 NNE 19 28 10 15 1010.4 1006.1 0.0
05/02:00pm 37.7 33.5 12.3 22 15.7 N 26 35 14 19 1011.1 1006.8 0.0
05/01:30pm 36.2 33.5 13.0 24 14.4 NNE 19 37 10 20 1011.7 1007.4 0.0
05/01:00pm 35.4 33.5 14.1 28 13.4 NE 17 32 9 17 1012.0 1007.7 0.0
05/12:30pm 34.6 33.2 14.5 30 12.7 NE 15 28 8 15 1012.6 1008.3 0.0
05/12:00pm 34.4 33.9 15.8 33 11.9 NE 13 24 7 13 1013.1 1008.8 0.0
05/11:30am 33.8 32.6 16.2 35 11.3 NE 17 24 9 13 1013.5 1009.2 0.0
05/11:00am 33.0 31.2 15.9 35 10.9 NE 20 30 11 16 1014.0 1009.8 0.0
05/10:30am 32.0 33.7 18.6 45 8.9 E 7 13 4 7 1014.5 1010.2 0.0
05/10:00am 30.2 33.0 19.6 53 7.1 ENE 4 9 2 5 1014.8 1010.5 0.0
05/09:30am 29.1 31.7 20.0 58 6.1 SE 6 9 3 5 1015.1 1010.8 0.0
05/09:00am 28.3 30.2 19.8 60 5.7 SE 9 13 5 7 1014.9 1010.6 0.0
05/08:30am 28.2 29.9 20.2 62 5.4 ESE 11 17 6 9 1015.0 1010.7 0.0
05/08:00am 26.3 28.7 20.8 71 3.7 SE 9 13 5 7 1015.0 1010.7 0.0
05/07:30am 25.7 28.4 20.7 74 3.4 SE 7 13 4 7 1014.7 1010.4 0.0
05/07:00am 25.3 28.4 21.0 77 2.9 SSE 6 9 3 5 1014.4 1010.1 0.0
05/06:30am 24.7 27.4 21.4 82 2.2 SE 9 11 5 6 1013.9 1009.7 0.0
05/06:00am 24.4 27.6 21.3 83 2.1 SSW 6 7 3 4 1013.6 1009.3 0.0
05/05:30am 24.3 28.0 21.4 84 2.0 SSW 4 6 2 3 1013.3 1009.0 0.0
05/05:00am 24.3 27.5 21.2 83 2.1 SSW 6 7 3 4 1012.9 1008.6 0.0
05/04:30am 24.4 27.3 21.1 82 2.2 S 7 9 4 5 1012.6 1008.3 0.0
05/04:00am 24.5 27.4 20.6 79 2.6 S 6 9 3 5 1012.2 1008.0 0.0
05/03:30am 24.5 27.4 20.6 79 2.6 SSE 6 7 3 4 1012.1 1007.8 0.0
05/03:00am 24.7 27.9 20.4 77 2.9 SSE 4 6 2 3 1011.9 1007.6 0.0
05/02:30am 24.7 27.9 20.6 78 2.7 SE 4 6 2 3 1011.8 1007.5 0.0
05/02:00am 24.7 27.3 20.0 75 3.1 SE 6 7 3 4 1011.7 1007.4 0.0
05/01:30am 24.7 27.2 20.2 76 3.0 ESE 7 9 4 5 1011.9 1007.6 0.0
05/01:00am 24.7 27.6 20.6 78 2.7 E 6 7 3 4 1012.3 1008.1 0.0
05/12:30am 24.7 27.8 21.0 80 2.5 E 6 7 3 4 1012.7 1008.4 0.0
05/12:00am 24.9 28.6 20.8 78 2.7 E 2 4 1 2 1012.9 1008.6 0.0
 
Date/Time
CST
Temp
°C
App
Temp
°C
Dew
Point
°C
Rel
Hum
%
Delta-T
°C
Wind Press
QNH
hPa
Press
MSL
hPa
Rain since
9am
mm
Dir  Spd
km/h
Gust
km/h
Spd
kts
Gust
kts
04/11:30pm 25.1 27.9 20.4 75 3.1 E 6 6 3 3 1013.0 1008.7 0.0
04/11:00pm 25.8 28.3 19.9 70 3.9 NE 6 7 3 4 1013.1 1008.8 0.0
04/10:30pm 26.4 28.5 19.3 65 4.7 NNE 7 11 4 6 1013.3 1009.0 0.0
04/10:00pm 27.3 27.5 19.4 62 5.2 NNE 17 22 9 12 1013.3 1009.0 0.0
04/09:30pm 28.0 27.2 19.2 58 5.8 NNE 22 30 12 16 1013.4 1009.1 0.0
04/09:15pm 28.9 27.2 18.9 54 6.6 NNE 26 35 14 19 1013.4 1009.1 0.0
04/09:00pm 28.9 31.2 20.6 61 5.6 NNE 9 11 5 6 1013.0 1008.7 0.0
04/08:30pm 29.2 31.8 20.4 59 5.9 NNE 7 7 4 4 1012.4 1008.2 0.0
04/08:00pm 29.4 31.6 20.3 58 6.1 NNE 9 9 5 5 1012.2 1008.0 0.0
04/07:30pm 30.0 32.7 20.3 56 6.5 NNE 6 6 3 3 1011.9 1007.6 0.0
04/07:00pm 31.0 33.1 18.0 45 8.5 NNW 4 6 2 3 1011.2 1006.9 0.0
04/06:30pm 32.1 32.2 16.4 39 10.1 NNW 11 17 6 9 1011.0 1006.7 0.0
04/06:00pm 33.4 33.2 16.7 36 10.8 WNW 13 20 7 11 1010.5 1006.2 0.0
04/05:30pm 33.3 32.8 15.8 35 11.2 NW 13 20 7 11 1010.3 1006.0 0.0
04/05:00pm 33.9 32.6 16.7 35 11.2 WNW 19 30 10 16 1010.7 1006.4 0.0
04/04:30pm 34.0 34.6 17.7 38 10.7 WNW 11 19 6 10 1011.0 1006.7 0.0
04/04:00pm 32.7 33.7 16.9 38 10.2 NW 7 15 4 8 1011.4 1007.1 0.0
04/03:30pm 31.4 32.8 17.7 44 9.0 W 7 17 4 9 1011.8 1007.5 0.0
04/03:00pm 31.3 33.2 19.0 48 8.2 ESE 7 11 4 6 1012.1 1007.8 0.0
04/02:30pm 30.1 32.2 18.2 49 7.8 N 4 9 2 5 1012.8 1008.5 0.0
04/02:00pm 29.6 32.0 19.6 55 6.7 N 6 11 3 6 1013.2 1008.9 0.0
04/01:30pm 29.4 31.3 19.7 56 6.5 NNE 9 13 5 7 1013.8 1009.6 0.0
04/01:00pm 28.1 29.8 19.3 58 5.8 NNE 9 13 5 7 1014.4 1010.1 0.0
04/12:30pm 28.1 28.7 18.5 56 6.3 NE 13 19 7 10 1014.6 1010.3 0.0
04/12:00pm 28.1 29.7 19.9 61 5.5 NE 11 19 6 10 1014.8 1010.5 0.0
04/11:30am 27.3 29.3 19.9 64 4.9 ENE 9 13 5 7 1015.0 1010.7 0.0
04/11:00am 27.4 28.2 20.7 67 4.5 ENE 17 22 9 12 1015.3 1011.0 0.0
04/10:30am 26.8 27.5 20.4 68 4.3 ENE 17 22 9 12 1015.5 1011.3 0.0
04/10:00am 25.4 27.3 20.6 75 3.2 ENE 11 17 6 9 1015.9 1011.7 0.0
04/09:30am 25.7 27.7 20.7 74 3.4 NE 11 17 6 9 1015.9 1011.7 0.0
04/09:00am 25.1 27.4 20.6 76 3.0 E 9 11 5 6 1015.7 1011.5 2.2
04/08:30am 24.0 26.5 21.1 84 1.9 ESE 9 11 5 6 1015.6 1011.4 2.0
04/08:00am 23.0 25.9 21.1 89 1.3 ESE 7 9 4 5 1015.7 1011.5 2.0
04/07:30am 22.2 24.5 20.7 91 1.0 SE 9 13 5 7 1015.4 1011.1 2.0
04/07:00am 22.0 25.1 21.0 94 0.7 S 6 11 3 6 1015.5 1011.3 2.0
04/06:30am 21.8 24.6 20.8 94 0.7 S 7 11 4 6 1015.0 1010.7 2.0
04/06:00am 21.7 23.6 20.5 93 0.8 SSE 11 15 6 8 1014.6 1010.3 2.0
04/05:30am 21.6 23.2 20.8 95 0.5 SSE 13 17 7 9 1014.4 1010.1 2.0
04/05:00am 21.5 23.8 20.7 95 0.5 SSW 9 15 5 8 1014.9 1010.6 2.0
04/04:30am 21.9 24.7 21.6 98 0.2 SW 9 13 5 7 1014.9 1010.6 2.0
04/04:00am 21.9 24.9 20.9 94 0.7 SW 6 6 3 3 1014.8 1010.5 2.0
04/03:30am 22.0 25.3 20.8 93 0.8 N 4 6 2 3 1015.2 1010.9 2.0
04/03:00am 21.9 24.9 21.2 96 0.5 ENE 7 9 4 5 1014.5 1010.2 2.0
04/02:30am 21.4 22.6 20.6 95 0.5 ESE 15 20 8 11 1014.4 1010.1 2.0
04/02:00am 21.5 23.4 20.5 94 0.7 NE 11 15 6 8 1015.3 1011.0 1.6
04/01:30am 22.1 23.6 19.8 87 1.5 ESE 11 17 6 9 1014.8 1010.5 1.2
04/01:00am 23.5 25.2 19.4 78 2.7 SE 9 15 5 8 1015.3 1011.0 0.4
04/12:30am 22.6 21.8 19.2 81 2.2 ENE 22 28 12 15 1015.4 1011.1 0.4
04/12:18am 25.6 23.3 17.5 61 5.2 ENE 26 37 14 20 1015.5 1011.3 0.0
04/12:00am 28.0 28.6 15.3 46 7.9 S 6 11 3 6 1014.1 1009.9 0.0
 
Date/Time
CST
Temp
°C
App
Temp
°C
Dew
Point
°C
Rel
Hum
%
Delta-T
°C
Wind Press
QNH
hPa
Press
MSL
hPa
Rain since
9am
mm
Dir  Spd
km/h
Gust
km/h
Spd
kts
Gust
kts
03/11:30pm 28.0 27.6 15.3 46 7.9 SSW 11 15 6 8 1013.7 1009.4 0.0
03/11:00pm 28.3 28.3 15.2 44 8.2 SW 9 13 5 7 1013.9 1009.7 0.0
03/10:30pm 28.9 28.5 15.1 43 8.6 WSW 11 15 6 8 1014.0 1009.8 0.0
03/10:00pm 29.4 28.7 14.4 40 9.3 WSW 11 15 6 8 1014.1 1009.9 0.0
03/09:30pm 29.9 29.0 13.6 36 10.0 SW 11 17 6 9 1013.4 1009.1 0.0
03/09:00pm 30.1 29.2 13.8 37 10.0 WSW 11 13 6 7 1012.9 1008.6 0.0
03/08:30pm 30.7 30.4 14.3 36 10.2 W 9 15 5 8 1012.7 1008.4 0.0
03/08:00pm 31.0 29.6 14.6 37 10.2 WNW 15 20 8 11 1012.2 1008.0 0.0
03/07:30pm 31.2 31.0 14.8 37 10.3 NW 9 13 5 7 1011.8 1007.5 0.0
03/07:00pm 31.7 30.4 14.8 36 10.6 NW 15 19 8 10 1011.2 1006.9 0.0
03/06:30pm 32.0 29.9 15.1 36 10.7 NNW 20 26 11 14 1010.9 1006.6 0.0
03/06:00pm 32.6 28.8 14.7 34 11.3 N 28 43 15 23 1010.9 1006.6 0.0
03/05:45pm 33.4 29.4 14.0 31 12.1 NNW 28 54 15 29 1010.8 1006.5 0.0
03/05:30pm 34.4 30.7 13.8 29 12.9 NNW 26 37 14 20 1010.4 1006.1 0.0
03/05:00pm 35.0 31.6 13.8 28 13.3 NNW 24 33 13 18 1010.1 1005.8 0.0
03/04:30pm 36.0 32.2 13.5 26 14.1 NNW 26 35 14 19 1009.8 1005.5 0.0
03/04:00pm 37.9 37.4 13.8 23 15.2 WNW 9 24 5 13 1009.6 1005.3 0.0
03/03:30pm 37.7 36.0 12.3 22 15.7 NNW 13 26 7 14 1010.1 1005.8 0.0
03/03:00pm 37.0 34.4 13.1 24 14.9 N 19 28 10 15 1010.4 1006.1 0.0
03/02:30pm 36.9 34.6 14.2 25 14.4 NNW 19 28 10 15 1010.9 1006.6 0.0
03/02:00pm 36.1 34.0 13.6 26 14.1 N 17 30 9 16 1011.4 1007.1 0.0
03/01:30pm 36.0 34.5 15.2 29 13.3 W 17 28 9 15 1011.6 1007.3 0.0
03/01:00pm 35.3 33.2 13.5 27 13.6 NNW 17 26 9 14 1012.3 1008.1 0.0
03/12:30pm 36.6 35.0 15.1 27 13.8 NW 17 35 9 19 1013.2 1008.9 0.0
03/12:00pm 35.9 33.6 14.0 27 13.8 NW 19 28 10 15 1013.6 1009.3 0.0
03/11:30am 35.2 33.6 12.8 26 13.8 NW 13 22 7 12 1014.1 1009.9 0.0
03/11:00am 34.5 33.5 13.3 27 13.1 NNW 11 43 6 23 1014.4 1010.1 0.0
03/10:30am 34.4 32.4 12.7 27 13.3 NW 15 24 8 13 1014.9 1010.6 0.0
03/10:00am 32.3 31.8 12.5 30 12.0 NW 7 17 4 9 1014.9 1010.6 0.0
03/09:30am 31.7 30.9 13.9 34 11.0 W 11 20 6 11 1014.9 1010.6 0.0
03/09:00am 30.6 29.3 14.7 38 9.9 WSW 15 19 8 10 1015.1 1010.8 0.0
03/08:30am 29.4 27.2 14.8 41 9.1 WSW 20 32 11 17 1015.1 1010.8 0.0
03/08:00am 28.9 27.2 15.8 45 8.3 SW 19 26 10 14 1014.9 1010.6 0.0
03/07:30am 27.2 25.7 16.2 51 6.9 SW 19 26 10 14 1014.7 1010.4 0.0
03/07:00am 25.8 24.6 16.1 55 6.1 SSW 17 26 9 14 1014.9 1010.6 0.0
03/06:30am 23.9 23.7 17.6 68 4.0 SW 15 19 8 10 1014.9 1010.6 0.0
03/06:00am 25.2 23.5 15.8 56 5.9 WSW 19 28 10 15 1014.5 1010.2 0.0
03/05:30am 28.1 26.0 13.6 41 8.8 W 17 30 9 16 1013.7 1009.4 0.0
03/05:00am 28.3 26.6 12.6 38 9.4 NW 13 22 7 12 1012.1 1007.8 0.0
03/04:30am 27.3 26.9 12.9 41 8.6 NNW 7 9 4 5 1011.8 1007.5 0.0
03/04:00am 27.6 26.1 12.0 38 9.2 N 11 15 6 8 1011.6 1007.3 0.0
03/03:30am 26.2 25.7 13.7 46 7.6 N 9 13 5 7 1011.3 1007.0 0.0
03/03:00am 24.1 25.0 15.1 57 5.5 WSW 4 6 2 3 1010.7 1006.4 0.0
03/02:30am 24.6 24.8 14.1 52 6.4 WSW 6 7 3 4 1010.3 1006.0 0.0
03/02:00am 25.1 25.0 13.9 49 6.8 SSW 7 9 4 5 1010.4 1006.1 0.0
03/01:30am 25.8 26.0 14.6 50 6.9 SW 7 9 4 5 1010.7 1006.4 0.0
03/01:00am 24.4 25.6 16.9 63 4.7 W 6 7 3 4 1011.0 1006.7 0.0
03/12:30am 24.7 26.0 17.2 63 4.8 WNW 6 13 3 7 1011.5 1007.2 0.0
03/12:00am 26.0 27.9 16.8 57 5.8 E 2 2 1 1 1011.7 1007.4 0.0
 
Date/Time
CST
Temp
°C
App
Temp
°C
Dew
Point
°C
Rel
Hum
%
Delta-T
°C
Wind Press
QNH
hPa
Press
MSL
hPa
Rain since
9am
mm
Dir  Spd
km/h
Gust
km/h
Spd
kts
Gust
kts
02/11:30pm 26.4 28.5 16.3 53 6.4 CALM 0 0 0 0 1011.9 1007.6 0.0
02/11:00pm 26.4 27.1 14.5 48 7.3 E 4 7 2 4 1012.0 1007.7 0.0
02/10:30pm 27.2 29.0 15.6 49 7.3 CALM 0 0 0 0 1011.9 1007.6 0.0

Other Formats:

Comma delimited format used in spreadsheet applications
http://www.bom.gov.au/fwo/IDD60801/IDD60801.94328.axf

JavaScript Object Notation format (JSON) in row-major order
http://www.bom.gov.au/fwo/IDD60801/IDD60801.94328.json